sensor_id;sensor_type;location;lat;lon;timestamp;temperature;humidity
4647;DHT22;2336;47.822;7.564;2023-09-07T00:00:25;18.60;99.90
4647;DHT22;2336;47.822;7.564;2023-09-07T00:02:53;18.50;99.90
4647;DHT22;2336;47.822;7.564;2023-09-07T00:05:20;18.50;99.90
4647;DHT22;2336;47.822;7.564;2023-09-07T00:07:47;18.40;99.90
4647;DHT22;2336;47.822;7.564;2023-09-07T00:10:14;18.40;99.90
4647;DHT22;2336;47.822;7.564;2023-09-07T00:12:43;18.40;99.90
4647;DHT22;2336;47.822;7.564;2023-09-07T00:15:10;18.30;99.90
4647;DHT22;2336;47.822;7.564;2023-09-07T00:17:37;18.20;99.90
4647;DHT22;2336;47.822;7.564;2023-09-07T00:20:05;18.10;99.90
4647;DHT22;2336;47.822;7.564;2023-09-07T00:22:36;18.10;99.90
4647;DHT22;2336;47.822;7.564;2023-09-07T00:25:04;18.00;99.90
4647;DHT22;2336;47.822;7.564;2023-09-07T00:27:32;18.00;99.90
4647;DHT22;2336;47.822;7.564;2023-09-07T00:29:59;18.00;99.90
4647;DHT22;2336;47.822;7.564;2023-09-07T00:32:25;18.00;99.90
4647;DHT22;2336;47.822;7.564;2023-09-07T00:34:52;18.00;99.90
4647;DHT22;2336;47.822;7.564;2023-09-07T00:37:20;17.90;99.90
4647;DHT22;2336;47.822;7.564;2023-09-07T00:39:47;17.90;99.90
4647;DHT22;2336;47.822;7.564;2023-09-07T00:42:14;17.80;99.90
4647;DHT22;2336;47.822;7.564;2023-09-07T00:44:40;17.80;99.90
4647;DHT22;2336;47.822;7.564;2023-09-07T00:47:07;17.80;99.90
4647;DHT22;2336;47.822;7.564;2023-09-07T00:49:34;17.70;99.90
4647;DHT22;2336;47.822;7.564;2023-09-07T00:52:01;17.70;99.90
4647;DHT22;2336;47.822;7.564;2023-09-07T00:54:29;17.70;99.90
4647;DHT22;2336;47.822;7.564;2023-09-07T00:56:56;17.70;99.90
4647;DHT22;2336;47.822;7.564;2023-09-07T00:59:23;17.70;99.90
4647;DHT22;2336;47.822;7.564;2023-09-07T01:01:51;17.70;99.90
4647;DHT22;2336;47.822;7.564;2023-09-07T01:04:17;17.60;99.90
4647;DHT22;2336;47.822;7.564;2023-09-07T01:06:50;17.50;99.90
4647;DHT22;2336;47.822;7.564;2023-09-07T01:09:20;17.50;99.90
4647;DHT22;2336;47.822;7.564;2023-09-07T01:11:49;17.50;99.90
4647;DHT22;2336;47.822;7.564;2023-09-07T01:14:16;17.50;99.90
4647;DHT22;2336;47.822;7.564;2023-09-07T01:16:44;17.60;99.90
4647;DHT22;2336;47.822;7.564;2023-09-07T01:19:11;17.60;99.90
4647;DHT22;2336;47.822;7.564;2023-09-07T01:21:39;17.60;99.90
4647;DHT22;2336;47.822;7.564;2023-09-07T01:24:08;17.60;99.90
4647;DHT22;2336;47.822;7.564;2023-09-07T01:26:35;17.60;99.90
4647;DHT22;2336;47.822;7.564;2023-09-07T01:29:04;17.60;99.90
4647;DHT22;2336;47.822;7.564;2023-09-07T01:31:34;17.60;99.90
4647;DHT22;2336;47.822;7.564;2023-09-07T01:34:01;17.60;99.90
4647;DHT22;2336;47.822;7.564;2023-09-07T01:36:27;17.50;99.90
4647;DHT22;2336;47.822;7.564;2023-09-07T01:38:55;17.50;99.90
4647;DHT22;2336;47.822;7.564;2023-09-07T01:41:22;17.50;99.90
4647;DHT22;2336;47.822;7.564;2023-09-07T01:43:49;17.50;99.90
4647;DHT22;2336;47.822;7.564;2023-09-07T01:46:16;17.50;99.90
4647;DHT22;2336;47.822;7.564;2023-09-07T01:48:42;17.40;99.90
4647;DHT22;2336;47.822;7.564;2023-09-07T01:51:09;17.40;99.90
4647;DHT22;2336;47.822;7.564;2023-09-07T01:53:36;17.40;99.90
4647;DHT22;2336;47.822;7.564;2023-09-07T01:56:04;17.30;99.90
4647;DHT22;2336;47.822;7.564;2023-09-07T01:58:30;17.30;99.90
4647;DHT22;2336;47.822;7.564;2023-09-07T02:00:58;17.20;99.90
4647;DHT22;2336;47.822;7.564;2023-09-07T02:03:25;17.20;99.90
4647;DHT22;2336;47.822;7.564;2023-09-07T02:05:52;17.20;99.90
4647;DHT22;2336;47.822;7.564;2023-09-07T02:08:19;17.10;99.90
4647;DHT22;2336;47.822;7.564;2023-09-07T02:10:46;17.10;99.90
4647;DHT22;2336;47.822;7.564;2023-09-07T02:13:14;17.10;99.90
4647;DHT22;2336;47.822;7.564;2023-09-07T02:15:42;17.10;99.90
4647;DHT22;2336;47.822;7.564;2023-09-07T02:18:10;17.00;99.90
4647;DHT22;2336;47.822;7.564;2023-09-07T02:20:37;17.00;99.90
4647;DHT22;2336;47.822;7.564;2023-09-07T02:23:03;17.00;99.90
4647;DHT22;2336;47.822;7.564;2023-09-07T02:25:30;16.90;99.90
4647;DHT22;2336;47.822;7.564;2023-09-07T02:27:57;16.90;99.90
4647;DHT22;2336;47.822;7.564;2023-09-07T02:30:25;16.90;99.90
4647;DHT22;2336;47.822;7.564;2023-09-07T02:32:52;16.90;99.90
4647;DHT22;2336;47.822;7.564;2023-09-07T02:35:18;16.90;99.90
4647;DHT22;2336;47.822;7.564;2023-09-07T02:37:45;16.90;99.90
4647;DHT22;2336;47.822;7.564;2023-09-07T02:40:12;17.00;99.90
4647;DHT22;2336;47.822;7.564;2023-09-07T02:42:41;16.90;99.90
4647;DHT22;2336;47.822;7.564;2023-09-07T02:45:10;16.90;99.90
4647;DHT22;2336;47.822;7.564;2023-09-07T02:47:38;17.00;99.90
4647;DHT22;2336;47.822;7.564;2023-09-07T02:50:06;16.90;99.90
4647;DHT22;2336;47.822;7.564;2023-09-07T02:52:33;16.90;99.90
4647;DHT22;2336;47.822;7.564;2023-09-07T02:55:00;16.80;99.90
4647;DHT22;2336;47.822;7.564;2023-09-07T02:57:27;16.80;99.90
4647;DHT22;2336;47.822;7.564;2023-09-07T02:59:53;16.80;99.90
4647;DHT22;2336;47.822;7.564;2023-09-07T03:02:20;16.80;99.90
4647;DHT22;2336;47.822;7.564;2023-09-07T03:04:53;16.80;99.90
4647;DHT22;2336;47.822;7.564;2023-09-07T03:07:20;16.80;99.90
4647;DHT22;2336;47.822;7.564;2023-09-07T03:09:47;16.80;99.90
4647;DHT22;2336;47.822;7.564;2023-09-07T03:12:13;16.80;99.90
4647;DHT22;2336;47.822;7.564;2023-09-07T03:14:42;16.90;99.90
4647;DHT22;2336;47.822;7.564;2023-09-07T03:17:09;16.90;99.90
4647;DHT22;2336;47.822;7.564;2023-09-07T03:19:36;16.90;99.90
4647;DHT22;2336;47.822;7.564;2023-09-07T03:22:05;17.00;99.90
4647;DHT22;2336;47.822;7.564;2023-09-07T03:24:32;17.00;99.90
4647;DHT22;2336;47.822;7.564;2023-09-07T03:27:00;17.00;99.90
4647;DHT22;2336;47.822;7.564;2023-09-07T03:29:27;16.90;99.90
4647;DHT22;2336;47.822;7.564;2023-09-07T03:31:53;16.80;99.90
4647;DHT22;2336;47.822;7.564;2023-09-07T03:34:20;16.80;99.90
4647;DHT22;2336;47.822;7.564;2023-09-07T03:36:47;16.80;99.90
4647;DHT22;2336;47.822;7.564;2023-09-07T03:39:15;16.80;99.90
4647;DHT22;2336;47.822;7.564;2023-09-07T03:41:44;16.80;99.90
4647;DHT22;2336;47.822;7.564;2023-09-07T03:44:11;16.80;99.90
4647;DHT22;2336;47.822;7.564;2023-09-07T03:46:38;16.70;99.90
4647;DHT22;2336;47.822;7.564;2023-09-07T03:49:04;16.70;99.90
4647;DHT22;2336;47.822;7.564;2023-09-07T03:51:31;16.70;99.90
4647;DHT22;2336;47.822;7.564;2023-09-07T03:53:58;16.70;99.90
4647;DHT22;2336;47.822;7.564;2023-09-07T03:56:27;16.70;99.90
4647;DHT22;2336;47.822;7.564;2023-09-07T03:58:54;16.60;99.90
4647;DHT22;2336;47.822;7.564;2023-09-07T04:01:21;16.50;99.90
4647;DHT22;2336;47.822;7.564;2023-09-07T04:03:48;16.50;99.90
4647;DHT22;2336;47.822;7.564;2023-09-07T04:06:15;16.50;99.90
4647;DHT22;2336;47.822;7.564;2023-09-07T04:08:42;16.50;99.90
4647;DHT22;2336;47.822;7.564;2023-09-07T04:11:09;16.40;99.90
4647;DHT22;2336;47.822;7.564;2023-09-07T04:13:37;16.40;99.90
4647;DHT22;2336;47.822;7.564;2023-09-07T04:16:03;16.40;99.90
4647;DHT22;2336;47.822;7.564;2023-09-07T04:18:30;16.30;99.90
4647;DHT22;2336;47.822;7.564;2023-09-07T04:21:05;16.30;99.90
4647;DHT22;2336;47.822;7.564;2023-09-07T04:23:33;16.30;99.90
4647;DHT22;2336;47.822;7.564;2023-09-07T04:26:05;16.20;99.90
4647;DHT22;2336;47.822;7.564;2023-09-07T04:28:32;16.20;99.90
4647;DHT22;2336;47.822;7.564;2023-09-07T04:31:00;16.20;99.90
4647;DHT22;2336;47.822;7.564;2023-09-07T04:33:29;16.20;99.90
4647;DHT22;2336;47.822;7.564;2023-09-07T04:35:56;16.20;99.90
4647;DHT22;2336;47.822;7.564;2023-09-07T04:38:23;16.20;99.90
4647;DHT22;2336;47.822;7.564;2023-09-07T04:40:49;16.20;99.90
4647;DHT22;2336;47.822;7.564;2023-09-07T04:43:16;16.10;99.90
4647;DHT22;2336;47.822;7.564;2023-09-07T04:45:46;16.10;99.90
4647;DHT22;2336;47.822;7.564;2023-09-07T04:48:14;16.10;99.90
4647;DHT22;2336;47.822;7.564;2023-09-07T04:50:41;16.00;99.90
4647;DHT22;2336;47.822;7.564;2023-09-07T04:53:08;16.00;99.90
4647;DHT22;2336;47.822;7.564;2023-09-07T04:55:37;16.00;99.90
4647;DHT22;2336;47.822;7.564;2023-09-07T04:58:04;16.00;99.90
4647;DHT22;2336;47.822;7.564;2023-09-07T05:00:31;15.90;99.90
4647;DHT22;2336;47.822;7.564;2023-09-07T05:02:58;15.90;99.90
4647;DHT22;2336;47.822;7.564;2023-09-07T05:05:26;15.90;99.90
4647;DHT22;2336;47.822;7.564;2023-09-07T05:07:54;15.90;99.90
4647;DHT22;2336;47.822;7.564;2023-09-07T05:10:21;15.90;99.90
4647;DHT22;2336;47.822;7.564;2023-09-07T05:12:48;15.90;99.90
4647;DHT22;2336;47.822;7.564;2023-09-07T05:15:15;15.90;99.90
4647;DHT22;2336;47.822;7.564;2023-09-07T05:17:42;15.90;99.90
4647;DHT22;2336;47.822;7.564;2023-09-07T05:20:11;16.00;99.90
4647;DHT22;2336;47.822;7.564;2023-09-07T05:22:39;16.00;99.90
4647;DHT22;2336;47.822;7.564;2023-09-07T05:25:07;16.00;99.90
4647;DHT22;2336;47.822;7.564;2023-09-07T05:27:34;16.00;99.90
4647;DHT22;2336;47.822;7.564;2023-09-07T05:30:01;16.00;99.90
4647;DHT22;2336;47.822;7.564;2023-09-07T05:32:28;16.10;99.90
4647;DHT22;2336;47.822;7.564;2023-09-07T05:34:55;16.10;99.90
4647;DHT22;2336;47.822;7.564;2023-09-07T05:37:22;16.10;99.90
4647;DHT22;2336;47.822;7.564;2023-09-07T05:39:50;16.20;99.90
4647;DHT22;2336;47.822;7.564;2023-09-07T05:42:16;16.20;99.90
4647;DHT22;2336;47.822;7.564;2023-09-07T05:44:43;16.20;99.90
4647;DHT22;2336;47.822;7.564;2023-09-07T05:47:10;16.30;99.90
4647;DHT22;2336;47.822;7.564;2023-09-07T05:49:37;16.30;99.90
4647;DHT22;2336;47.822;7.564;2023-09-07T05:52:04;16.40;99.90
4647;DHT22;2336;47.822;7.564;2023-09-07T05:54:31;16.40;99.90
4647;DHT22;2336;47.822;7.564;2023-09-07T05:56:59;16.50;99.90
4647;DHT22;2336;47.822;7.564;2023-09-07T05:59:26;16.50;99.90
4647;DHT22;2336;47.822;7.564;2023-09-07T06:01:52;16.60;99.90
4647;DHT22;2336;47.822;7.564;2023-09-07T06:04:19;16.60;99.90
4647;DHT22;2336;47.822;7.564;2023-09-07T06:06:47;16.70;99.90
4647;DHT22;2336;47.822;7.564;2023-09-07T06:09:13;16.70;99.90
4647;DHT22;2336;47.822;7.564;2023-09-07T06:11:40;16.70;99.90
4647;DHT22;2336;47.822;7.564;2023-09-07T06:14:08;16.70;99.90
4647;DHT22;2336;47.822;7.564;2023-09-07T06:16:35;16.80;99.90
4647;DHT22;2336;47.822;7.564;2023-09-07T06:19:02;16.90;99.90
4647;DHT22;2336;47.822;7.564;2023-09-07T06:21:29;17.00;99.90
4647;DHT22;2336;47.822;7.564;2023-09-07T06:23:56;17.20;99.90
4647;DHT22;2336;47.822;7.564;2023-09-07T06:26:23;17.30;99.90
4647;DHT22;2336;47.822;7.564;2023-09-07T06:28:50;17.40;99.90
4647;DHT22;2336;47.822;7.564;2023-09-07T06:31:18;17.50;99.90
4647;DHT22;2336;47.822;7.564;2023-09-07T06:33:45;17.50;99.90
4647;DHT22;2336;47.822;7.564;2023-09-07T06:36:12;17.50;99.90
4647;DHT22;2336;47.822;7.564;2023-09-07T06:38:38;17.60;99.90
4647;DHT22;2336;47.822;7.564;2023-09-07T06:41:05;17.70;99.90
4647;DHT22;2336;47.822;7.564;2023-09-07T06:43:33;17.70;99.90
4647;DHT22;2336;47.822;7.564;2023-09-07T06:46:03;17.70;99.90
4647;DHT22;2336;47.822;7.564;2023-09-07T06:48:31;17.80;99.90
4647;DHT22;2336;47.822;7.564;2023-09-07T06:51:01;17.80;99.90
4647;DHT22;2336;47.822;7.564;2023-09-07T06:53:29;17.90;99.90
4647;DHT22;2336;47.822;7.564;2023-09-07T06:55:57;17.90;99.90
4647;DHT22;2336;47.822;7.564;2023-09-07T06:58:24;18.00;99.90
4647;DHT22;2336;47.822;7.564;2023-09-07T07:00:51;18.00;99.90
4647;DHT22;2336;47.822;7.564;2023-09-07T07:03:17;18.10;99.90
4647;DHT22;2336;47.822;7.564;2023-09-07T07:05:45;18.20;99.90
4647;DHT22;2336;47.822;7.564;2023-09-07T07:08:12;18.30;99.90
4647;DHT22;2336;47.822;7.564;2023-09-07T07:10:39;18.30;99.90
4647;DHT22;2336;47.822;7.564;2023-09-07T07:13:06;18.40;99.90
4647;DHT22;2336;47.822;7.564;2023-09-07T07:15:32;18.50;99.90
4647;DHT22;2336;47.822;7.564;2023-09-07T07:18:00;18.50;99.90
4647;DHT22;2336;47.822;7.564;2023-09-07T07:20:31;18.50;99.90
4647;DHT22;2336;47.822;7.564;2023-09-07T07:22:59;18.60;99.90
4647;DHT22;2336;47.822;7.564;2023-09-07T07:25:26;18.70;99.90
4647;DHT22;2336;47.822;7.564;2023-09-07T07:27:53;18.70;99.90
4647;DHT22;2336;47.822;7.564;2023-09-07T07:30:19;18.70;99.90
4647;DHT22;2336;47.822;7.564;2023-09-07T07:32:46;18.80;99.90
4647;DHT22;2336;47.822;7.564;2023-09-07T07:35:13;18.80;99.90
4647;DHT22;2336;47.822;7.564;2023-09-07T07:37:40;18.90;99.90
4647;DHT22;2336;47.822;7.564;2023-09-07T07:40:09;18.90;99.90
4647;DHT22;2336;47.822;7.564;2023-09-07T07:42:36;19.00;99.90
4647;DHT22;2336;47.822;7.564;2023-09-07T07:45:04;19.20;99.90
4647;DHT22;2336;47.822;7.564;2023-09-07T07:47:31;19.30;99.90
4647;DHT22;2336;47.822;7.564;2023-09-07T07:49:57;19.30;99.90
4647;DHT22;2336;47.822;7.564;2023-09-07T07:52:24;19.30;99.90
4647;DHT22;2336;47.822;7.564;2023-09-07T07:54:51;19.30;99.90
4647;DHT22;2336;47.822;7.564;2023-09-07T07:57:19;19.40;99.90
4647;DHT22;2336;47.822;7.564;2023-09-07T07:59:46;19.50;99.90
4647;DHT22;2336;47.822;7.564;2023-09-07T08:02:13;19.60;99.90
4647;DHT22;2336;47.822;7.564;2023-09-07T08:04:40;19.60;99.90
4647;DHT22;2336;47.822;7.564;2023-09-07T08:07:07;19.70;99.90
4647;DHT22;2336;47.822;7.564;2023-09-07T08:09:34;19.80;99.90
4647;DHT22;2336;47.822;7.564;2023-09-07T08:12:01;19.80;99.90
4647;DHT22;2336;47.822;7.564;2023-09-07T08:14:30;19.90;99.90
4647;DHT22;2336;47.822;7.564;2023-09-07T08:16:58;20.00;99.90
4647;DHT22;2336;47.822;7.564;2023-09-07T08:19:25;20.10;99.90
4647;DHT22;2336;47.822;7.564;2023-09-07T08:21:53;20.20;99.90
4647;DHT22;2336;47.822;7.564;2023-09-07T08:24:20;20.20;99.90
4647;DHT22;2336;47.822;7.564;2023-09-07T08:26:46;20.40;99.90
4647;DHT22;2336;47.822;7.564;2023-09-07T08:29:16;20.50;99.90
4647;DHT22;2336;47.822;7.564;2023-09-07T08:31:45;20.50;99.90
4647;DHT22;2336;47.822;7.564;2023-09-07T08:34:14;20.60;99.90
4647;DHT22;2336;47.822;7.564;2023-09-07T08:36:41;20.70;99.90
4647;DHT22;2336;47.822;7.564;2023-09-07T08:39:07;20.70;99.90
4647;DHT22;2336;47.822;7.564;2023-09-07T08:41:38;20.80;99.90
4647;DHT22;2336;47.822;7.564;2023-09-07T08:44:10;20.90;99.90
4647;DHT22;2336;47.822;7.564;2023-09-07T08:46:37;21.00;99.90
4647;DHT22;2336;47.822;7.564;2023-09-07T08:49:05;21.20;99.90
4647;DHT22;2336;47.822;7.564;2023-09-07T08:51:32;21.20;99.90
4647;DHT22;2336;47.822;7.564;2023-09-07T08:54:01;21.30;99.90
4647;DHT22;2336;47.822;7.564;2023-09-07T08:56:29;21.30;99.90
4647;DHT22;2336;47.822;7.564;2023-09-07T08:58:56;21.40;99.90
4647;DHT22;2336;47.822;7.564;2023-09-07T09:01:23;21.40;99.90
4647;DHT22;2336;47.822;7.564;2023-09-07T09:03:50;21.50;99.90
4647;DHT22;2336;47.822;7.564;2023-09-07T09:06:20;21.60;99.90
4647;DHT22;2336;47.822;7.564;2023-09-07T09:08:48;21.70;99.90
4647;DHT22;2336;47.822;7.564;2023-09-07T09:11:16;21.80;99.90
4647;DHT22;2336;47.822;7.564;2023-09-07T09:13:44;21.90;99.90
4647;DHT22;2336;47.822;7.564;2023-09-07T09:16:11;22.00;99.90
4647;DHT22;2336;47.822;7.564;2023-09-07T09:18:38;22.10;99.90
4647;DHT22;2336;47.822;7.564;2023-09-07T09:21:05;22.30;99.90
4647;DHT22;2336;47.822;7.564;2023-09-07T09:23:35;22.30;99.90
4647;DHT22;2336;47.822;7.564;2023-09-07T09:26:02;22.50;99.90
4647;DHT22;2336;47.822;7.564;2023-09-07T09:28:30;22.50;99.90
4647;DHT22;2336;47.822;7.564;2023-09-07T09:30:58;22.60;99.90
4647;DHT22;2336;47.822;7.564;2023-09-07T09:33:25;22.80;99.90
4647;DHT22;2336;47.822;7.564;2023-09-07T09:35:53;22.80;99.90
4647;DHT22;2336;47.822;7.564;2023-09-07T09:38:20;22.80;99.90
4647;DHT22;2336;47.822;7.564;2023-09-07T09:40:49;22.90;99.90
4647;DHT22;2336;47.822;7.564;2023-09-07T09:43:15;23.00;99.90
4647;DHT22;2336;47.822;7.564;2023-09-07T09:45:42;23.00;99.90
4647;DHT22;2336;47.822;7.564;2023-09-07T09:48:09;23.00;99.90
4647;DHT22;2336;47.822;7.564;2023-09-07T09:50:37;23.20;99.90
4647;DHT22;2336;47.822;7.564;2023-09-07T09:53:05;23.40;99.90
4647;DHT22;2336;47.822;7.564;2023-09-07T09:55:33;23.30;99.90
4647;DHT22;2336;47.822;7.564;2023-09-07T09:58:02;23.40;99.90
4647;DHT22;2336;47.822;7.564;2023-09-07T10:00:30;23.50;99.90
4647;DHT22;2336;47.822;7.564;2023-09-07T10:03:05;23.60;99.90
4647;DHT22;2336;47.822;7.564;2023-09-07T10:05:33;23.60;99.90
4647;DHT22;2336;47.822;7.564;2023-09-07T10:08:02;23.70;99.90
4647;DHT22;2336;47.822;7.564;2023-09-07T10:10:34;23.80;99.90
4647;DHT22;2336;47.822;7.564;2023-09-07T10:13:03;23.80;99.90
4647;DHT22;2336;47.822;7.564;2023-09-07T10:15:30;24.00;99.90
4647;DHT22;2336;47.822;7.564;2023-09-07T10:18:06;24.20;99.90
4647;DHT22;2336;47.822;7.564;2023-09-07T10:20:53;24.40;99.90
4647;DHT22;2336;47.822;7.564;2023-09-07T10:23:21;24.40;99.90
4647;DHT22;2336;47.822;7.564;2023-09-07T10:25:49;24.40;99.90
4647;DHT22;2336;47.822;7.564;2023-09-07T10:28:25;24.40;99.90
4647;DHT22;2336;47.822;7.564;2023-09-07T10:31:00;24.60;99.90
4647;DHT22;2336;47.822;7.564;2023-09-07T10:33:28;24.50;99.90
4647;DHT22;2336;47.822;7.564;2023-09-07T10:35:55;24.50;99.90
4647;DHT22;2336;47.822;7.564;2023-09-07T10:38:22;24.60;99.90
4647;DHT22;2336;47.822;7.564;2023-09-07T10:40:55;24.80;99.90
4647;DHT22;2336;47.822;7.564;2023-09-07T10:43:24;24.90;99.90
4647;DHT22;2336;47.822;7.564;2023-09-07T10:45:51;25.00;99.90
4647;DHT22;2336;47.822;7.564;2023-09-07T10:48:18;25.20;99.90
4647;DHT22;2336;47.822;7.564;2023-09-07T10:50:45;25.20;99.90
4647;DHT22;2336;47.822;7.564;2023-09-07T10:53:13;25.20;99.90
4647;DHT22;2336;47.822;7.564;2023-09-07T10:55:41;25.20;99.90
4647;DHT22;2336;47.822;7.564;2023-09-07T10:58:08;25.40;99.90
4647;DHT22;2336;47.822;7.564;2023-09-07T11:00:37;25.60;99.90
4647;DHT22;2336;47.822;7.564;2023-09-07T11:03:08;25.50;99.90
4647;DHT22;2336;47.822;7.564;2023-09-07T11:05:36;25.60;99.90
4647;DHT22;2336;47.822;7.564;2023-09-07T11:08:04;25.60;99.90
4647;DHT22;2336;47.822;7.564;2023-09-07T11:10:33;25.70;99.90
4647;DHT22;2336;47.822;7.564;2023-09-07T11:13:02;25.80;99.90
4647;DHT22;2336;47.822;7.564;2023-09-07T11:15:29;25.90;99.90
4647;DHT22;2336;47.822;7.564;2023-09-07T11:17:57;26.00;99.90
4647;DHT22;2336;47.822;7.564;2023-09-07T11:20:24;26.10;99.90
4647;DHT22;2336;47.822;7.564;2023-09-07T11:22:51;26.10;99.90
4647;DHT22;2336;47.822;7.564;2023-09-07T11:25:18;26.20;99.90
4647;DHT22;2336;47.822;7.564;2023-09-07T11:27:45;26.30;99.90
4647;DHT22;2336;47.822;7.564;2023-09-07T11:30:12;26.40;99.90
4647;DHT22;2336;47.822;7.564;2023-09-07T11:32:39;26.50;99.90
4647;DHT22;2336;47.822;7.564;2023-09-07T11:35:09;26.70;99.90
4647;DHT22;2336;47.822;7.564;2023-09-07T11:37:36;26.80;99.90
4647;DHT22;2336;47.822;7.564;2023-09-07T11:40:04;26.80;99.90
4647;DHT22;2336;47.822;7.564;2023-09-07T11:42:36;26.90;99.90
4647;DHT22;2336;47.822;7.564;2023-09-07T11:45:05;26.90;99.90
4647;DHT22;2336;47.822;7.564;2023-09-07T11:47:32;26.80;99.90
4647;DHT22;2336;47.822;7.564;2023-09-07T11:49:59;26.80;99.90
4647;DHT22;2336;47.822;7.564;2023-09-07T11:52:28;27.00;99.90
4647;DHT22;2336;47.822;7.564;2023-09-07T11:54:54;27.00;99.90
4647;DHT22;2336;47.822;7.564;2023-09-07T11:57:21;27.00;99.90
4647;DHT22;2336;47.822;7.564;2023-09-07T11:59:48;27.00;99.90
4647;DHT22;2336;47.822;7.564;2023-09-07T12:02:14;27.20;99.90
4647;DHT22;2336;47.822;7.564;2023-09-07T12:04:42;27.30;99.90
4647;DHT22;2336;47.822;7.564;2023-09-07T12:07:09;27.40;99.90
4647;DHT22;2336;47.822;7.564;2023-09-07T12:09:37;27.40;99.90
4647;DHT22;2336;47.822;7.564;2023-09-07T12:12:04;27.50;99.90
4647;DHT22;2336;47.822;7.564;2023-09-07T12:14:31;27.60;99.90
4647;DHT22;2336;47.822;7.564;2023-09-07T12:16:58;27.70;99.90
4647;DHT22;2336;47.822;7.564;2023-09-07T12:19:25;27.80;99.90
4647;DHT22;2336;47.822;7.564;2023-09-07T12:21:52;28.00;99.90
4647;DHT22;2336;47.822;7.564;2023-09-07T12:24:18;28.10;99.90
4647;DHT22;2336;47.822;7.564;2023-09-07T12:26:46;28.00;99.90
4647;DHT22;2336;47.822;7.564;2023-09-07T12:29:13;28.00;99.90
4647;DHT22;2336;47.822;7.564;2023-09-07T12:31:40;28.10;99.90
4647;DHT22;2336;47.822;7.564;2023-09-07T12:34:07;28.10;99.90
4647;DHT22;2336;47.822;7.564;2023-09-07T12:36:34;28.10;99.90
4647;DHT22;2336;47.822;7.564;2023-09-07T12:39:01;28.10;99.90
4647;DHT22;2336;47.822;7.564;2023-09-07T12:41:29;28.20;99.90
4647;DHT22;2336;47.822;7.564;2023-09-07T12:43:58;28.10;99.90
4647;DHT22;2336;47.822;7.564;2023-09-07T12:46:25;28.20;99.90
4647;DHT22;2336;47.822;7.564;2023-09-07T12:48:51;28.30;99.90
4647;DHT22;2336;47.822;7.564;2023-09-07T12:51:18;28.30;99.90
4647;DHT22;2336;47.822;7.564;2023-09-07T12:53:45;28.20;99.90
4647;DHT22;2336;47.822;7.564;2023-09-07T12:56:11;28.20;99.90
4647;DHT22;2336;47.822;7.564;2023-09-07T12:58:39;28.30;99.90
4647;DHT22;2336;47.822;7.564;2023-09-07T13:01:07;28.30;99.90
4647;DHT22;2336;47.822;7.564;2023-09-07T13:03:35;28.30;99.90
4647;DHT22;2336;47.822;7.564;2023-09-07T13:06:02;28.30;99.90
4647;DHT22;2336;47.822;7.564;2023-09-07T13:08:29;28.40;99.90
4647;DHT22;2336;47.822;7.564;2023-09-07T13:10:56;28.50;99.90
4647;DHT22;2336;47.822;7.564;2023-09-07T13:13:23;28.50;99.90
4647;DHT22;2336;47.822;7.564;2023-09-07T13:15:54;28.50;99.90
4647;DHT22;2336;47.822;7.564;2023-09-07T13:18:22;28.60;99.90
4647;DHT22;2336;47.822;7.564;2023-09-07T13:20:49;28.60;99.90
4647;DHT22;2336;47.822;7.564;2023-09-07T13:23:17;28.60;99.90
4647;DHT22;2336;47.822;7.564;2023-09-07T13:25:44;28.70;99.90
4647;DHT22;2336;47.822;7.564;2023-09-07T13:28:11;28.80;99.90
4647;DHT22;2336;47.822;7.564;2023-09-07T13:30:38;28.80;99.90
4647;DHT22;2336;47.822;7.564;2023-09-07T13:33:05;28.90;99.90
4647;DHT22;2336;47.822;7.564;2023-09-07T13:35:33;29.00;99.90
4647;DHT22;2336;47.822;7.564;2023-09-07T13:37:59;29.00;99.90
4647;DHT22;2336;47.822;7.564;2023-09-07T13:40:26;29.00;99.90
4647;DHT22;2336;47.822;7.564;2023-09-07T13:42:55;28.90;99.90
4647;DHT22;2336;47.822;7.564;2023-09-07T13:45:22;29.00;99.90
4647;DHT22;2336;47.822;7.564;2023-09-07T13:47:48;29.00;99.90
4647;DHT22;2336;47.822;7.564;2023-09-07T13:50:15;28.90;99.90
4647;DHT22;2336;47.822;7.564;2023-09-07T13:52:43;29.00;99.90
4647;DHT22;2336;47.822;7.564;2023-09-07T13:55:10;29.10;99.90
4647;DHT22;2336;47.822;7.564;2023-09-07T13:57:36;29.10;99.90
4647;DHT22;2336;47.822;7.564;2023-09-07T14:00:05;29.00;99.90
4647;DHT22;2336;47.822;7.564;2023-09-07T14:02:32;29.00;99.90
4647;DHT22;2336;47.822;7.564;2023-09-07T14:04:59;29.10;99.90
4647;DHT22;2336;47.822;7.564;2023-09-07T14:07:25;29.20;99.90
4647;DHT22;2336;47.822;7.564;2023-09-07T14:09:54;29.20;99.90
4647;DHT22;2336;47.822;7.564;2023-09-07T14:12:20;29.30;99.90
4647;DHT22;2336;47.822;7.564;2023-09-07T14:14:48;29.30;99.90
4647;DHT22;2336;47.822;7.564;2023-09-07T14:17:15;29.20;99.90
4647;DHT22;2336;47.822;7.564;2023-09-07T14:19:42;29.30;99.90
4647;DHT22;2336;47.822;7.564;2023-09-07T14:22:11;29.20;99.90
4647;DHT22;2336;47.822;7.564;2023-09-07T14:24:37;29.20;99.90
4647;DHT22;2336;47.822;7.564;2023-09-07T14:27:06;29.20;99.90
4647;DHT22;2336;47.822;7.564;2023-09-07T14:29:34;29.30;99.90
4647;DHT22;2336;47.822;7.564;2023-09-07T14:32:01;29.30;99.90
4647;DHT22;2336;47.822;7.564;2023-09-07T14:34:27;29.30;99.90
4647;DHT22;2336;47.822;7.564;2023-09-07T14:36:54;29.30;99.90
4647;DHT22;2336;47.822;7.564;2023-09-07T14:39:21;29.40;99.90
4647;DHT22;2336;47.822;7.564;2023-09-07T14:41:49;29.30;99.90
4647;DHT22;2336;47.822;7.564;2023-09-07T14:44:19;29.40;99.90
4647;DHT22;2336;47.822;7.564;2023-09-07T14:46:46;29.30;99.90
4647;DHT22;2336;47.822;7.564;2023-09-07T14:49:14;29.30;99.90
4647;DHT22;2336;47.822;7.564;2023-09-07T14:51:43;29.30;99.90
4647;DHT22;2336;47.822;7.564;2023-09-07T14:54:09;29.30;99.90
4647;DHT22;2336;47.822;7.564;2023-09-07T14:56:36;29.30;99.90
4647;DHT22;2336;47.822;7.564;2023-09-07T14:59:03;29.30;99.90
4647;DHT22;2336;47.822;7.564;2023-09-07T15:01:31;29.30;99.90
4647;DHT22;2336;47.822;7.564;2023-09-07T15:03:58;29.30;99.90
4647;DHT22;2336;47.822;7.564;2023-09-07T15:06:25;29.30;99.90
4647;DHT22;2336;47.822;7.564;2023-09-07T15:08:51;29.30;99.90
4647;DHT22;2336;47.822;7.564;2023-09-07T15:11:17;29.30;99.90
4647;DHT22;2336;47.822;7.564;2023-09-07T15:13:44;29.30;99.90
4647;DHT22;2336;47.822;7.564;2023-09-07T15:16:12;29.30;99.90
4647;DHT22;2336;47.822;7.564;2023-09-07T15:18:40;29.30;99.90
4647;DHT22;2336;47.822;7.564;2023-09-07T15:21:06;29.30;99.90
4647;DHT22;2336;47.822;7.564;2023-09-07T15:23:33;29.30;99.90
4647;DHT22;2336;47.822;7.564;2023-09-07T15:26:00;29.30;99.90
4647;DHT22;2336;47.822;7.564;2023-09-07T15:28:27;29.30;99.90
4647;DHT22;2336;47.822;7.564;2023-09-07T15:30:53;29.30;99.90
4647;DHT22;2336;47.822;7.564;2023-09-07T15:33:21;29.30;99.90
4647;DHT22;2336;47.822;7.564;2023-09-07T15:35:49;29.20;99.90
4647;DHT22;2336;47.822;7.564;2023-09-07T15:38:16;29.30;99.90
4647;DHT22;2336;47.822;7.564;2023-09-07T15:40:42;29.30;99.90
4647;DHT22;2336;47.822;7.564;2023-09-07T15:43:10;29.20;99.90
4647;DHT22;2336;47.822;7.564;2023-09-07T15:45:37;29.20;99.90
4647;DHT22;2336;47.822;7.564;2023-09-07T15:48:05;29.20;99.90
4647;DHT22;2336;47.822;7.564;2023-09-07T15:50:32;29.20;99.90
4647;DHT22;2336;47.822;7.564;2023-09-07T15:53:00;29.20;99.90
4647;DHT22;2336;47.822;7.564;2023-09-07T15:55:27;29.20;99.90
4647;DHT22;2336;47.822;7.564;2023-09-07T15:57:54;29.20;99.90
4647;DHT22;2336;47.822;7.564;2023-09-07T16:00:21;29.20;99.90
4647;DHT22;2336;47.822;7.564;2023-09-07T16:02:48;29.20;99.90